Impacts TAF Board INFO
FOR SITUATIONAL AWARENESS. NOT TO BE USED FOR FLIGHT PLANNING PURPOSES.
IDs:

KSAN - San Diego Intl Arpt, CA, US

Issued at 2320 UTC 15 Dec 2017
Updated at 2339 UTC 15 Dec 2017
Potential Impact None Slight Moderate High
Time2251Z 16/00Z 16/01Z 16/02Z 16/03Z 16/04Z 16/05Z 16/06Z 16/07Z 16/08Z 16/09Z 16/10Z 16/11Z 16/12Z>>
Type OBS PRVL PRVL PRVL PRVL PRVL PRVL PRVL PRVL PRVL PRVL PRVL PRVL PRVL
VIS 10 >6 >6 >6 >6 >6 >6 >6 >6 >6 >6 >6 >6 >6
CIG -- -- -- -- -- -- -- -- -- -- -- -- -- --
Cover FEW FEW FEW FEW FEW FEW FEW FEW FEW FEW FEW FEW FEW FEW
FltCat VFR VFR VFR VFR VFR VFR VFR VFR VFR VFR VFR VFR VFR VFR
WX -- -- -- -- -- -- -- -- -- -- -- -- -- --
WDir 300 VRB VRB VRB VRB VRB VRB VRB VRB VRB VRB VRB VRB VRB
WSpd 8 5 5 5 5 5 5 5 5 5 5 5 5 5
WGst -- -- -- -- -- -- -- -- -- -- -- -- -- --

Raw TAF
KSAN 152320Z 1600/1706 VRB05KT P6SM FEW010 FEW250
  FM161300 VRB05KT P6SM BKN015
  FM161900 19006KT P6SM SCT020
  FM162300 17005KT P6SM BKN020


Raw METAR
KSAN 152251Z 30008KT 10SM FEW010 FEW250 24/M06 A3003 RMK AO2 SLP167 FU FEW010 T02391056
KSAN 152151Z 31009KT 10SM FEW250 24/M08 A3005 RMK AO2 SLP174 T02441078
KSAN 152051Z 30008KT 10SM FEW250 24/M02 A3007 RMK AO2 SLP181 T02391022 58030

METAR Board
Radar Display
Forecast Discussion

FOR SITUATIONAL AWARENESS. NOT TO BE USED FOR FLIGHT PLANNING PURPOSES.